Latest Weather Observations for Lombadina

IDW60801

Issued at 11:04 am WST Sunday 21 December 2014 (issued every 30 minutes, with the page automatically refreshed every 10 minutes)

About weather observations | Map of weather stations | Latest weather observations for WA | Other Formats
Station Details ID: 503016 Name: LOMBADINA AIRSTRIP Lat: -16.52 Lon: 122.92 Height: 42.0 m
Data from the previous 72 hours. | See also: Recent months for locations in Western Australia
Date/Time
WST
Temp
°C
App
Temp
°C
Dew
Point
Rel
Hum
%
Delta-T
°C
Wind Press
QNH
hPa
Press
MSL
hPa
Rain
since 9 am
mm
Dir
 
Spd
km/h
Gust
km/h
Spd
kts
Gust
kts
21/11:00am 32.6 36.4 23.5 58 6.3 SW 9 17 5 9 1008.8 1008.4 0.0
21/10:30am 31.8 36.4 23.8 62 5.6 SW 6 15 3 8 1009.2 1008.8 0.0
21/10:00am 30.7 35.9 24.2 68 4.5 SSW 4 13 2 7 1009.5 1009.1 0.0
21/09:30am 29.8 36.4 25.3 77 3.2 CALM 0 0 0 0 1009.8 1009.4 0.0
21/09:00am 29.2 35.5 24.8 77 3.1 CALM 0 0 0 0 1009.9 1009.5 1.0
21/08:30am 29.0 35.3 24.8 78 2.9 CALM 0 0 0 0 1009.9 1009.5 1.0
21/08:00am 28.6 35.1 25.0 81 2.5 CALM 0 0 0 0 1009.7 1009.3 1.0
21/07:30am 28.6 35.1 25.6 84 2.1 SW 2 11 1 6 1009.3 1008.9 1.0
21/07:00am 28.4 35.2 25.6 85 2.0 CALM 0 0 0 0 1009.0 1008.6 1.0
21/06:30am 27.3 34.1 25.5 90 1.3 CALM 0 0 0 0 1009.1 1008.7 1.0
21/06:00am 26.7 33.4 25.4 93 0.9 CALM 0 0 0 0 1008.7 1008.3 1.0
21/05:30am 25.7 31.8 24.5 93 0.8 CALM 0 0 0 0 1008.3 1007.9 1.0
21/05:00am 25.8 32.0 24.6 93 0.8 CALM 0 0 0 0 1007.9 1007.5 1.0
21/04:30am 26.0 32.3 24.8 93 0.8 CALM 0 0 0 0 1007.5 1007.1 1.0
21/04:00am 25.9 32.4 25.0 95 0.6 CALM 0 0 0 0 1007.4 1007.0 1.0
21/03:30am 26.1 32.4 24.8 92 0.9 CALM 0 0 0 0 1007.3 1006.9 1.0
21/03:00am 26.2 32.4 24.6 91 1.1 CALM 0 0 0 0 1007.2 1006.8 1.0
21/02:30am 26.4 32.5 24.4 89 1.4 CALM 0 0 0 0 1007.4 1007.0 1.0
21/02:00am 25.9 31.8 24.1 90 1.2 CALM 0 0 0 0 1007.4 1007.0 1.0
21/01:30am 26.1 32.2 24.5 91 1.1 CALM 0 0 0 0 1007.4 1007.0 1.0
21/01:00am 26.0 32.5 25.1 95 0.6 CALM 0 0 0 0 1007.8 1007.4 1.0
21/12:30am 26.4 33.0 25.3 94 0.8 CALM 0 0 0 0 1008.2 1007.8 1.0
21/12:00am 26.4 33.1 25.4 94 0.7 CALM 0 0 0 0 1008.6 1008.2 1.0
 
Date/Time
WST
Temp
°C
App
Temp
°C
Dew
Point
Rel
Hum
%
Delta-T
°C
Wind Press
QNH
hPa
Press
MSL
hPa
Rain
since 9 am
mm
Dir
 
Spd
km/h
Gust
km/h
Spd
kts
Gust
kts
20/11:30pm 26.3 32.8 25.1 93 0.8 CALM 0 0 0 0 1008.8 1008.4 1.0
20/11:00pm 26.6 33.1 25.1 91 1.1 CALM 0 0 0 0 1008.8 1008.4 1.0
20/10:30pm 26.8 33.4 25.3 91 1.1 CALM 0 0 0 0 1008.9 1008.5 1.0
20/10:00pm 27.1 33.6 25.1 89 1.4 CALM 0 0 0 0 1009.0 1008.6 1.0
20/09:30pm 26.7 33.3 25.3 92 1.0 CALM 0 0 0 0 1009.0 1008.6 1.0
20/09:00pm 26.5 33.0 25.0 91 1.0 CALM 0 0 0 0 1008.8 1008.4 1.0
20/08:30pm 26.3 32.8 25.0 92 0.9 CALM 0 0 0 0 1008.3 1007.9 1.0
20/08:00pm 26.5 32.9 24.9 91 1.1 CALM 0 0 0 0 1008.1 1007.7 1.0
20/07:30pm 26.8 33.4 25.3 91 1.1 CALM 0 0 0 0 1007.7 1007.3 1.0
20/07:00pm 26.9 33.5 25.2 90 1.2 CALM 0 0 0 0 1007.2 1006.8 1.0
20/06:30pm 26.8 33.3 25.1 90 1.2 CALM 0 0 0 0 1006.8 1006.4 1.0
20/06:00pm 27.1 33.6 25.0 88 1.5 CALM 0 0 0 0 1006.5 1006.1 1.0
20/05:30pm 27.3 33.8 25.0 87 1.6 CALM 0 0 0 0 1006.0 1005.6 1.0
20/05:00pm 27.5 33.7 24.6 84 2.0 CALM 0 0 0 0 1005.9 1005.5 1.0
20/04:30pm 27.2 33.3 24.5 85 1.9 CALM 0 0 0 0 1006.2 1005.8 1.0
20/04:00pm 26.5 32.8 24.8 90 1.2 CALM 0 0 0 0 1006.6 1006.2 1.0
20/03:30pm 26.6 33.0 24.9 90 1.2 CALM 0 0 0 0 1007.4 1007.0 1.0
20/03:00pm 26.3 32.8 25.0 92 0.9 CALM 0 0 0 0 1007.8 1007.4 1.0
20/02:30pm 25.0 30.3 23.1 89 1.3 CALM 0 0 0 0 1008.5 1008.1 1.0
20/02:00pm 24.6 29.0 21.4 82 2.1 CALM 0 4 0 2 1009.0 1008.6 1.0
20/01:30pm 24.9 27.9 22.0 84 1.9 SSE 9 24 5 13 1009.0 1008.6 1.0
20/01:00pm 24.5 27.3 22.3 87 1.5 SE 11 24 6 13 1010.1 1009.7 1.0
20/12:30pm 22.4 25.2 21.5 95 0.6 S 9 22 5 12 1010.2 1009.8 1.0
20/12:00pm 23.7 24.8 22.0 90 1.1 SE 19 37 10 20 1010.4 1010.0 0.2
20/11:30am 27.9 31.4 23.5 77 3.0 SSE 11 26 6 14 1009.2 1008.8 0.0
20/11:00am 31.8 36.3 25.8 70 4.3 E 13 24 7 13 1009.8 1009.4 0.0
20/10:30am 33.6 38.1 25.8 63 5.6 E 13 24 7 13 1009.4 1009.0 0.0
20/10:00am 34.0 38.2 25.9 62 5.8 E 15 26 8 14 1010.1 1009.7 0.0
20/09:30am 34.2 39.7 24.1 55 7.1 S 2 15 1 8 1010.0 1009.6 0.0
20/09:00am 33.5 38.4 23.7 56 6.8 SW 4 11 2 6 1010.4 1010.0 0.0
20/08:30am 32.5 37.9 25.4 66 5.0 SW 7 15 4 8 1010.3 1009.9 0.0
20/08:00am 31.3 37.5 26.4 75 3.5 SW 6 15 3 8 1010.1 1009.7 0.0
20/07:30am 29.9 35.8 26.2 80 2.6 SW 7 17 4 9 1010.2 1009.8 0.0
20/07:00am 29.5 35.7 26.6 84 2.1 SSW 7 15 4 8 1010.4 1010.0 0.0
20/06:30am 29.1 34.8 26.5 86 1.9 SW 9 17 5 9 1009.8 1009.4 0.0
20/06:00am 28.3 34.6 26.5 90 1.3 SW 6 13 3 7 1009.4 1009.0 0.0
20/05:30am 27.9 34.5 26.4 91 1.1 SW 4 11 2 6 1008.9 1008.5 0.0
20/05:00am 27.5 33.9 26.6 95 0.6 SW 6 11 3 6 1008.5 1008.1 0.0
20/04:30am 27.2 34.5 26.3 95 0.6 CALM 0 0 0 0 1008.3 1007.9 0.0
20/04:00am 27.3 34.2 25.7 91 1.1 CALM 0 0 0 0 1008.2 1007.8 0.0
20/03:30am 27.7 34.6 25.7 89 1.4 CALM 0 0 0 0 1008.1 1007.7 0.0
20/03:00am 28.0 34.9 25.7 87 1.6 CALM 0 0 0 0 1008.2 1007.8 0.0
20/02:30am 28.6 35.6 25.8 85 2.0 CALM 0 0 0 0 1008.3 1007.9 0.0
20/02:00am 28.7 35.7 25.9 85 2.0 CALM 0 0 0 0 1008.5 1008.1 0.0
20/01:30am 28.7 35.7 25.8 84 2.1 CALM 0 0 0 0 1008.4 1008.0 0.0
20/01:00am 28.7 35.8 26.0 85 1.9 CALM 0 0 0 0 1008.7 1008.3 0.0
20/12:30am 28.9 36.1 26.1 85 2.0 CALM 0 0 0 0 1009.1 1008.7 0.0
20/12:00am 29.0 36.1 26.0 84 2.1 CALM 0 0 0 0 1009.6 1009.2 0.0
 
Date/Time
WST
Temp
°C
App
Temp
°C
Dew
Point
Rel
Hum
%
Delta-T
°C
Wind Press
QNH
hPa
Press
MSL
hPa
Rain
since 9 am
mm
Dir
 
Spd
km/h
Gust
km/h
Spd
kts
Gust
kts
19/11:30pm 29.1 36.1 25.8 82 2.3 CALM 0 0 0 0 1010.1 1009.7 0.0
19/11:00pm 29.0 35.9 25.7 82 2.3 CALM 0 0 0 0 1010.3 1009.9 0.0
19/10:30pm 29.0 35.6 25.2 80 2.7 CALM 0 0 0 0 1010.3 1009.9 0.0
19/10:00pm 29.2 35.7 25.0 78 3.0 CALM 0 0 0 0 1010.4 1010.0 0.0
19/09:30pm 29.3 35.4 25.1 78 3.0 WSW 2 11 1 6 1010.2 1009.8 0.0
19/09:00pm 29.5 35.3 25.2 77 3.0 WSW 4 9 2 5 1010.0 1009.6 0.0
19/08:30pm 29.7 35.8 25.1 76 3.2 WSW 2 13 1 7 1009.7 1009.3 0.0
19/08:00pm 29.7 35.1 25.2 77 3.2 WSW 6 15 3 8 1009.5 1009.1 0.0
19/07:30pm 29.8 35.1 25.3 77 3.2 WSW 7 13 4 7 1009.6 1009.2 0.0
19/07:00pm 30.1 36.1 24.9 73 3.7 WSW 2 7 1 4 1009.6 1009.2 0.0
19/06:30pm 30.3 36.0 24.4 70 4.1 W 2 9 1 5 1009.3 1008.9 0.0
19/06:00pm 30.6 36.3 25.0 72 3.9 W 4 11 2 6 1008.9 1008.5 0.0
19/05:30pm 30.8 35.4 24.2 68 4.6 W 7 17 4 9 1008.1 1007.7 0.0
19/05:00pm 32.0 36.6 23.8 62 5.7 W 6 15 3 8 1007.6 1007.2 0.0
19/04:30pm 33.0 36.7 22.6 54 7.1 W 7 15 4 8 1007.3 1006.9 0.0
19/04:00pm 33.2 36.5 22.6 53 7.3 W 9 15 5 8 1007.4 1007.0 0.0
19/03:30pm 33.7 38.3 23.2 54 7.3 WSW 4 13 2 7 1007.7 1007.3 0.0
19/03:00pm 33.4 38.2 24.4 59 6.3 WNW 7 13 4 7 1008.2 1007.8 0.0
19/02:30pm 33.9 38.3 23.4 54 7.3 WNW 6 13 3 7 1008.6 1008.2 0.0
19/02:00pm 32.2 36.7 23.9 61 5.8 NW 7 19 4 10 1008.9 1008.5 0.0
19/01:30pm 33.3 38.0 22.6 53 7.4 E 2 9 1 5 1009.3 1008.9 0.0
19/01:00pm 32.2 36.6 23.4 59 6.1 E 6 11 3 6 1009.8 1009.4 0.0
19/12:30pm 31.9 36.2 23.7 62 5.7 SE 7 15 4 8 1010.1 1009.7 0.0
19/12:00pm 31.6 35.5 23.6 62 5.6 SE 9 17 5 9 1010.3 1009.9 0.0
19/11:30am 30.9 35.0 23.3 64 5.2 ESE 7 15 4 8 1010.7 1010.3 0.0
19/11:00am 30.6 33.9 23.8 67 4.7 ESE 13 20 7 11 1011.0 1010.7 0.0
19/10:30am 31.1 34.1 23.3 63 5.4 ESE 13 24 7 13 1011.3 1011.0 0.0
19/10:00am 32.2 34.5 22.1 55 6.9 ESE 13 24 7 13 1011.4 1011.1 0.0
19/09:30am 32.6 34.4 21.2 51 7.7 E 13 24 7 13 1011.4 1011.1 0.0
19/09:00am 32.3 34.3 20.0 48 8.2 ESE 9 17 5 9 1011.6 1011.3 0.0
19/08:30am 32.5 34.7 19.7 46 8.5 SSE 7 17 4 9 1011.5 1011.2 0.0
19/08:00am 30.9 34.2 20.8 55 6.7 SSE 4 9 2 5 1011.3 1011.0 0.0
19/07:30am 30.4 34.0 22.1 61 5.6 SSW 6 11 3 6 1011.4 1011.1 0.0
19/07:00am 29.2 33.2 22.0 65 4.9 SSE 4 9 2 5 1011.0 1010.7 0.0
19/06:30am 28.0 31.0 22.0 70 4.0 S 9 15 5 8 1010.9 1010.5 0.0
19/06:00am 28.0 31.9 22.5 72 3.7 SSE 6 15 3 8 1010.6 1010.2 0.0
19/05:30am 27.3 31.3 22.7 76 3.1 SSE 6 17 3 9 1010.2 1009.8 0.0
19/05:00am 27.2 30.8 23.1 78 2.8 S 9 17 5 9 1009.7 1009.3 0.0
19/04:30am 27.7 31.6 23.0 75 3.2 SSE 7 15 4 8 1009.2 1008.8 0.0
19/04:00am 27.6 32.2 22.4 73 3.5 ESE 2 9 1 5 1008.0 1007.6 0.0
19/03:30am 28.1 32.8 21.9 69 4.2 CALM 0 7 0 4 1007.4 1007.0 0.0
19/03:00am 27.6 30.5 22.4 73 3.5 NNW 11 19 6 10 1006.7 1006.3 0.0
19/02:30am 27.3 32.8 23.4 79 2.7 CALM 0 0 0 0 1007.3 1006.9 0.0
19/02:00am 27.4 32.1 23.3 78 2.8 NE 4 9 2 5 1008.1 1007.7 0.0
19/01:30am 27.8 31.3 23.6 78 2.9 E 11 19 6 10 1009.0 1008.6 0.0
19/01:00am 27.2 31.0 24.0 83 2.2 ESE 11 26 6 14 1010.0 1009.6 0.0
19/12:30am 27.1 29.7 23.9 82 2.2 ESE 17 32 9 17 1010.9 1010.5 0.0
19/12:00am 27.2 29.8 24.0 83 2.2 E 17 26 9 14 1011.8 1011.5 0.0
 
Date/Time
WST
Temp
°C
App
Temp
°C
Dew
Point
Rel
Hum
%
Delta-T
°C
Wind Press
QNH
hPa
Press
MSL
hPa
Rain
since 9 am
mm
Dir
 
Spd
km/h
Gust
km/h
Spd
kts
Gust
kts
18/11:30pm 27.3 28.8 23.7 81 2.5 ESE 22 41 12 22 1012.4 1012.1 0.0
18/11:00pm 27.3 29.3 24.5 85 1.9 SE 22 48 12 26 1012.7 1012.4 0.0
18/10:53pm 27.8 30.6 24.3 81 2.4 SE 17 41 9 22 1012.7 1012.4 0.0
18/10:30pm 29.0 35.1 25.7 82 2.3 SSE 4 9 2 5 1012.1 1011.8 0.0
18/10:00pm 28.6 35.5 25.7 84 2.1 CALM 0 0 0 0 1011.3 1011.0 0.0
18/09:30pm 29.1 36.0 25.7 82 2.4 CALM 0 9 0 5 1010.4 1010.0 0.0
18/09:00pm 29.5 36.5 25.8 80 2.6 CALM 0 7 0 4 1010.0 1009.6 0.0
18/08:30pm 29.5 36.2 25.9 81 2.6 WNW 2 11 1 6 1009.2 1008.8 0.0
18/08:00pm 29.7 36.0 25.9 80 2.7 WNW 4 13 2 7 1008.9 1008.5 0.0
18/07:30pm 29.7 35.8 25.7 79 2.8 W 4 15 2 8 1009.0 1008.6 0.0
18/07:00pm 29.8 35.1 25.9 79 2.8 W 9 20 5 11 1008.4 1008.0 0.0
18/06:30pm 30.0 36.1 26.2 80 2.7 W 6 17 3 9 1007.9 1007.5 0.0
18/06:00pm 30.4 35.9 26.1 78 3.1 W 9 20 5 11 1007.3 1006.9 0.0
18/05:30pm 31.1 36.8 25.9 74 3.7 W 7 19 4 10 1007.2 1006.8 0.0
18/05:00pm 31.6 36.6 25.4 69 4.4 W 9 22 5 12 1007.2 1006.8 0.0
18/04:30pm 32.0 35.5 24.9 66 5.0 WNW 15 26 8 14 1006.5 1006.1 0.0
18/04:00pm 32.8 37.0 25.3 64 5.3 WNW 13 26 7 14 1006.0 1005.6 0.0
18/03:30pm 32.5 36.7 25.4 66 5.0 WNW 13 22 7 12 1006.2 1005.8 0.0
18/03:00pm 32.4 37.0 26.0 69 4.6 NW 13 22 7 12 1006.6 1006.2 0.0
18/02:30pm 32.3 36.8 25.8 68 4.6 WNW 13 20 7 11 1007.0 1006.6 0.0
18/02:00pm 32.9 36.0 23.6 58 6.5 NW 13 22 7 12 1007.3 1006.9 0.0
18/01:30pm 33.4 36.7 23.9 57 6.6 WNW 13 24 7 13 1007.7 1007.3 0.0
18/01:00pm 33.5 36.8 24.5 59 6.3 NW 15 22 8 12 1008.2 1007.8 0.0
18/12:30pm 32.8 35.6 23.6 58 6.4 NW 15 22 8 12 1008.3 1007.9 0.0
18/12:00pm 34.5 38.2 23.9 54 7.4 WNW 11 20 6 11 1008.5 1008.1 0.0
18/11:30am 33.9 37.8 24.2 57 6.8 WNW 11 22 6 12 1008.7 1008.3 0.0

Other Formats:

Comma delimited format used in spreadsheet applications
http://www.bom.gov.au/fwo/IDW60801/IDW60801.99206.axf

JavaScript Object Notation format (JSON) in row-major order
http://www.bom.gov.au/fwo/IDW60801/IDW60801.99206.json